sensor_id;sensor_type;location;lat;lon;timestamp;pressure;altitude;pressure_sealevel;temperature;humidity
13407;BME280;6774;48.208;10.766;2023-12-20T00:01:19;95548.09;;;6.60;64.05
13407;BME280;6774;48.208;10.766;2023-12-20T00:03:46;95546.13;;;6.62;63.50
13407;BME280;6774;48.208;10.766;2023-12-20T00:06:14;95548.25;;;6.50;64.00
13407;BME280;6774;48.208;10.766;2023-12-20T00:08:42;95557.84;;;6.25;64.94
13407;BME280;6774;48.208;10.766;2023-12-20T00:11:10;95534.78;;;6.37;65.33
13407;BME280;6774;48.208;10.766;2023-12-20T00:13:39;95530.56;;;6.60;64.72
13407;BME280;6774;48.208;10.766;2023-12-20T00:16:07;95505.00;;;6.62;63.44
13407;BME280;6774;48.208;10.766;2023-12-20T00:18:35;95515.00;;;6.59;63.19
13407;BME280;6774;48.208;10.766;2023-12-20T00:21:03;95510.72;;;6.74;62.75
13407;BME280;6774;48.208;10.766;2023-12-20T00:23:31;95501.56;;;6.70;62.50
13407;BME280;6774;48.208;10.766;2023-12-20T00:25:59;95510.72;;;6.66;62.89
13407;BME280;6774;48.208;10.766;2023-12-20T00:28:27;95517.97;;;6.80;63.06
13407;BME280;6774;48.208;10.766;2023-12-20T00:30:56;95513.03;;;6.61;63.48
13407;BME280;6774;48.208;10.766;2023-12-20T00:33:24;95516.31;;;6.79;63.76
13407;BME280;6774;48.208;10.766;2023-12-20T00:35:52;95513.69;;;6.71;62.75
13407;BME280;6774;48.208;10.766;2023-12-20T00:38:20;95518.91;;;6.54;64.69
13407;BME280;6774;48.208;10.766;2023-12-20T00:40:47;95513.53;;;6.64;64.80
13407;BME280;6774;48.208;10.766;2023-12-20T00:43:16;95527.78;;;6.62;64.24
13407;BME280;6774;48.208;10.766;2023-12-20T00:45:44;95518.28;;;6.61;64.55
13407;BME280;6774;48.208;10.766;2023-12-20T00:48:13;95515.00;;;6.59;64.11
13407;BME280;6774;48.208;10.766;2023-12-20T00:50:41;95512.88;;;6.78;63.91
13407;BME280;6774;48.208;10.766;2023-12-20T00:53:08;95512.06;;;6.86;63.80
13407;BME280;6774;48.208;10.766;2023-12-20T00:55:36;95511.06;;;6.87;63.46
13407;BME280;6774;48.208;10.766;2023-12-20T00:58:04;95506.00;;;6.77;63.52
13407;BME280;6774;48.208;10.766;2023-12-20T01:00:32;95502.38;;;6.87;63.20
13407;BME280;6774;48.208;10.766;2023-12-20T01:03:00;95498.94;;;6.70;63.39
13407;BME280;6774;48.208;10.766;2023-12-20T01:05:29;95488.28;;;6.88;63.55
13407;BME280;6774;48.208;10.766;2023-12-20T01:07:57;95489.09;;;6.88;63.82
13407;BME280;6774;48.208;10.766;2023-12-20T01:10:25;95499.25;;;6.91;64.45
13407;BME280;6774;48.208;10.766;2023-12-20T01:12:54;95500.25;;;6.82;64.97
13407;BME280;6774;48.208;10.766;2023-12-20T01:15:22;95490.56;;;6.82;65.32
13407;BME280;6774;48.208;10.766;2023-12-20T01:17:50;95481.41;;;6.87;65.00
13407;BME280;6774;48.208;10.766;2023-12-20T01:20:18;95487.59;;;6.94;64.85
13407;BME280;6774;48.208;10.766;2023-12-20T01:22:48;95469.41;;;6.92;64.97
13407;BME280;6774;48.208;10.766;2023-12-20T01:25:15;95460.91;;;6.90;65.19
13407;BME280;6774;48.208;10.766;2023-12-20T01:27:43;95465.16;;;6.99;65.21
13407;BME280;6774;48.208;10.766;2023-12-20T01:30:12;95471.41;;;6.82;65.68
13407;BME280;6774;48.208;10.766;2023-12-20T01:32:40;95456.13;;;6.94;65.64
13407;BME280;6774;48.208;10.766;2023-12-20T01:35:08;95451.38;;;6.97;65.80
13407;BME280;6774;48.208;10.766;2023-12-20T01:37:36;95456.66;;;6.89;66.16
13407;BME280;6774;48.208;10.766;2023-12-20T01:40:06;95455.00;;;6.80;66.57
13407;BME280;6774;48.208;10.766;2023-12-20T01:42:34;95453.38;;;6.95;66.41
13407;BME280;6774;48.208;10.766;2023-12-20T01:45:03;95446.31;;;6.88;66.98
13407;BME280;6774;48.208;10.766;2023-12-20T01:47:31;95451.75;;;6.70;68.65
13407;BME280;6774;48.208;10.766;2023-12-20T01:49:59;95438.81;;;6.68;68.77
13407;BME280;6774;48.208;10.766;2023-12-20T01:52:30;95434.03;;;6.64;69.41
13407;BME280;6774;48.208;10.766;2023-12-20T01:55:01;95424.19;;;6.57;69.52
13407;BME280;6774;48.208;10.766;2023-12-20T01:57:32;95419.94;;;6.65;69.54
13407;BME280;6774;48.208;10.766;2023-12-20T02:00:00;95417.16;;;6.74;69.56
13407;BME280;6774;48.208;10.766;2023-12-20T02:02:30;95403.06;;;6.67;69.83
13407;BME280;6774;48.208;10.766;2023-12-20T02:04:58;95410.44;;;6.39;71.65
13407;BME280;6774;48.208;10.766;2023-12-20T02:07:26;95405.22;;;6.47;71.73
13407;BME280;6774;48.208;10.766;2023-12-20T02:09:55;95418.47;;;6.30;73.25
13407;BME280;6774;48.208;10.766;2023-12-20T02:12:23;95415.38;;;6.26;74.26
13407;BME280;6774;48.208;10.766;2023-12-20T02:14:52;95411.13;;;6.33;73.99
13407;BME280;6774;48.208;10.766;2023-12-20T02:17:20;95414.72;;;6.40;73.79
13407;BME280;6774;48.208;10.766;2023-12-20T02:19:49;95412.91;;;6.08;74.31
13407;BME280;6774;48.208;10.766;2023-12-20T02:22:18;95426.94;;;5.91;75.59
13407;BME280;6774;48.208;10.766;2023-12-20T02:24:46;95428.31;;;5.61;77.73
13407;BME280;6774;48.208;10.766;2023-12-20T02:27:15;95436.19;;;5.61;78.17
13407;BME280;6774;48.208;10.766;2023-12-20T02:29:47;95413.69;;;5.42;79.02
13407;BME280;6774;48.208;10.766;2023-12-20T02:32:15;95415.53;;;5.50;79.43
13407;BME280;6774;48.208;10.766;2023-12-20T02:34:44;95418.16;;;5.50;79.11
13407;BME280;6774;48.208;10.766;2023-12-20T02:37:12;95411.31;;;5.65;78.92
13407;BME280;6774;48.208;10.766;2023-12-20T02:39:41;95403.09;;;5.52;80.08
13407;BME280;6774;48.208;10.766;2023-12-20T02:42:09;95404.38;;;5.48;80.39
13407;BME280;6774;48.208;10.766;2023-12-20T02:44:37;95410.75;;;5.45;80.37
13407;BME280;6774;48.208;10.766;2023-12-20T02:47:04;95413.53;;;5.43;80.61
13407;BME280;6774;48.208;10.766;2023-12-20T02:49:32;95418.25;;;5.32;80.90
13407;BME280;6774;48.208;10.766;2023-12-20T02:52:00;95416.16;;;5.43;80.73
13407;BME280;6774;48.208;10.766;2023-12-20T02:54:28;95430.25;;;5.51;81.31
13407;BME280;6774;48.208;10.766;2023-12-20T02:56:57;95434.09;;;5.30;83.13
13407;BME280;6774;48.208;10.766;2023-12-20T02:59:25;95436.56;;;5.32;84.58
13407;BME280;6774;48.208;10.766;2023-12-20T03:01:53;95434.84;;;5.14;85.38
13407;BME280;6774;48.208;10.766;2023-12-20T03:04:21;95455.88;;;5.05;86.60
13407;BME280;6774;48.208;10.766;2023-12-20T03:06:49;95441.44;;;5.01;87.76
13407;BME280;6774;48.208;10.766;2023-12-20T03:09:17;95446.44;;;4.86;88.90
13407;BME280;6774;48.208;10.766;2023-12-20T03:11:45;95446.63;;;4.93;89.83
13407;BME280;6774;48.208;10.766;2023-12-20T03:14:14;95447.56;;;4.83;90.18
13407;BME280;6774;48.208;10.766;2023-12-20T03:16:46;95445.66;;;4.94;90.38
13407;BME280;6774;48.208;10.766;2023-12-20T03:19:15;95445.97;;;4.91;90.96
13407;BME280;6774;48.208;10.766;2023-12-20T03:21:43;95455.88;;;5.05;90.10
13407;BME280;6774;48.208;10.766;2023-12-20T03:24:11;95457.47;;;4.98;90.58
13407;BME280;6774;48.208;10.766;2023-12-20T03:26:39;95466.38;;;5.13;90.04
13407;BME280;6774;48.208;10.766;2023-12-20T03:29:07;95457.47;;;4.98;89.94
13407;BME280;6774;48.208;10.766;2023-12-20T03:31:36;95458.13;;;5.00;90.14
13407;BME280;6774;48.208;10.766;2023-12-20T03:34:04;95463.25;;;5.09;90.66
13407;BME280;6774;48.208;10.766;2023-12-20T03:36:32;95457.72;;;4.87;90.96
13407;BME280;6774;48.208;10.766;2023-12-20T03:39:00;95461.72;;;4.99;90.98
13407;BME280;6774;48.208;10.766;2023-12-20T03:41:28;95468.06;;;4.70;92.29
13407;BME280;6774;48.208;10.766;2023-12-20T03:43:55;95458.06;;;4.92;92.16
13407;BME280;6774;48.208;10.766;2023-12-20T03:46:23;95470.06;;;4.76;92.81
13407;BME280;6774;48.208;10.766;2023-12-20T03:48:52;95459.47;;;5.04;92.71
13407;BME280;6774;48.208;10.766;2023-12-20T03:51:20;95458.59;;;4.95;92.50
13407;BME280;6774;48.208;10.766;2023-12-20T03:53:48;95456.22;;;4.84;92.98
13407;BME280;6774;48.208;10.766;2023-12-20T03:56:16;95455.28;;;4.85;93.22
13407;BME280;6774;48.208;10.766;2023-12-20T03:58:43;95451.56;;;4.96;92.81
13407;BME280;6774;48.208;10.766;2023-12-20T04:01:11;95464.69;;;5.04;93.08
13407;BME280;6774;48.208;10.766;2023-12-20T04:03:39;95468.38;;;4.93;93.09
13407;BME280;6774;48.208;10.766;2023-12-20T04:06:08;95446.41;;;5.12;93.00
13407;BME280;6774;48.208;10.766;2023-12-20T04:08:36;95459.41;;;5.22;93.19
13407;BME280;6774;48.208;10.766;2023-12-20T04:11:04;95457.28;;;5.25;92.80
13407;BME280;6774;48.208;10.766;2023-12-20T04:13:32;95463.25;;;5.09;93.49
13407;BME280;6774;48.208;10.766;2023-12-20T04:16:00;95469.59;;;5.33;92.97
13407;BME280;6774;48.208;10.766;2023-12-20T04:18:27;95476.41;;;5.00;93.81
13407;BME280;6774;48.208;10.766;2023-12-20T04:20:55;95470.22;;;5.01;94.07
13407;BME280;6774;48.208;10.766;2023-12-20T04:23:25;95470.22;;;5.01;94.38
13407;BME280;6774;48.208;10.766;2023-12-20T04:25:53;95474.41;;;4.94;94.65
13407;BME280;6774;48.208;10.766;2023-12-20T04:28:20;95489.00;;;4.96;94.68
13407;BME280;6774;48.208;10.766;2023-12-20T04:30:48;95494.75;;;4.82;95.07
13407;BME280;6774;48.208;10.766;2023-12-20T04:33:16;95497.41;;;5.08;94.25
13407;BME280;6774;48.208;10.766;2023-12-20T04:35:44;95497.28;;;4.92;94.92
13407;BME280;6774;48.208;10.766;2023-12-20T04:38:12;95506.94;;;5.17;94.44
13407;BME280;6774;48.208;10.766;2023-12-20T04:40:42;95496.69;;;4.98;94.38
13407;BME280;6774;48.208;10.766;2023-12-20T04:43:10;95502.50;;;4.92;95.03
13407;BME280;6774;48.208;10.766;2023-12-20T04:45:38;95501.47;;;4.84;95.23
13407;BME280;6774;48.208;10.766;2023-12-20T04:48:06;95506.81;;;5.01;94.83
13407;BME280;6774;48.208;10.766;2023-12-20T04:50:34;95506.81;;;5.01;95.20
13407;BME280;6774;48.208;10.766;2023-12-20T04:53:02;95509.44;;;5.01;95.07
13407;BME280;6774;48.208;10.766;2023-12-20T04:55:29;95509.97;;;5.04;94.63
13407;BME280;6774;48.208;10.766;2023-12-20T04:57:59;95508.94;;;4.97;94.60
13407;BME280;6774;48.208;10.766;2023-12-20T05:00:27;95515.75;;;4.90;95.04
13407;BME280;6774;48.208;10.766;2023-12-20T05:02:55;95507.03;;;4.81;94.99
13407;BME280;6774;48.208;10.766;2023-12-20T05:05:23;95513.59;;;4.85;95.08
13407;BME280;6774;48.208;10.766;2023-12-20T05:07:50;95517.16;;;4.84;95.26
13407;BME280;6774;48.208;10.766;2023-12-20T05:10:19;95529.31;;;4.68;95.67
13407;BME280;6774;48.208;10.766;2023-12-20T05:12:47;95525.41;;;4.72;95.43
13407;BME280;6774;48.208;10.766;2023-12-20T05:15:16;95527.63;;;4.84;95.45
13407;BME280;6774;48.208;10.766;2023-12-20T05:17:44;95531.13;;;4.75;95.31
13407;BME280;6774;48.208;10.766;2023-12-20T05:20:12;95526.81;;;4.84;95.30
13407;BME280;6774;48.208;10.766;2023-12-20T05:22:41;95529.16;;;4.51;95.78
13407;BME280;6774;48.208;10.766;2023-12-20T05:25:09;95531.38;;;4.28;96.14
13407;BME280;6774;48.208;10.766;2023-12-20T05:27:37;95547.88;;;4.47;95.88
13407;BME280;6774;48.208;10.766;2023-12-20T05:30:05;95543.34;;;4.49;95.44
13407;BME280;6774;48.208;10.766;2023-12-20T05:32:35;95543.13;;;4.60;95.17
13407;BME280;6774;48.208;10.766;2023-12-20T05:35:04;95548.63;;;4.75;94.74
13407;BME280;6774;48.208;10.766;2023-12-20T05:37:31;95547.97;;;4.55;94.77
13407;BME280;6774;48.208;10.766;2023-12-20T05:39:59;95562.47;;;4.49;94.69
13407;BME280;6774;48.208;10.766;2023-12-20T05:42:27;95550.16;;;4.60;95.19
13407;BME280;6774;48.208;10.766;2023-12-20T05:44:55;95547.34;;;4.25;94.98
13407;BME280;6774;48.208;10.766;2023-12-20T05:47:25;95558.56;;;4.36;94.62
13407;BME280;6774;48.208;10.766;2023-12-20T05:49:54;95570.03;;;4.25;94.67
13407;BME280;6774;48.208;10.766;2023-12-20T05:52:22;95569.91;;;4.26;94.80
13407;BME280;6774;48.208;10.766;2023-12-20T05:54:50;95579.28;;;4.19;95.20
13407;BME280;6774;48.208;10.766;2023-12-20T05:57:18;95575.03;;;4.18;94.89
13407;BME280;6774;48.208;10.766;2023-12-20T05:59:46;95593.31;;;4.18;95.17
13407;BME280;6774;48.208;10.766;2023-12-20T06:02:14;95589.34;;;4.14;94.42
13407;BME280;6774;48.208;10.766;2023-12-20T06:04:42;95599.28;;;4.28;94.56
13407;BME280;6774;48.208;10.766;2023-12-20T06:07:13;95603.69;;;4.00;95.41
13407;BME280;6774;48.208;10.766;2023-12-20T06:09:41;95601.25;;;4.26;94.29
13407;BME280;6774;48.208;10.766;2023-12-20T06:12:09;95622.63;;;4.12;95.03
13407;BME280;6774;48.208;10.766;2023-12-20T06:14:37;95604.69;;;3.99;95.33
13407;BME280;6774;48.208;10.766;2023-12-20T06:17:05;95606.00;;;4.13;95.37
13407;BME280;6774;48.208;10.766;2023-12-20T06:19:33;95617.00;;;4.07;95.14
13407;BME280;6774;48.208;10.766;2023-12-20T06:22:01;95600.88;;;4.21;94.33
13407;BME280;6774;48.208;10.766;2023-12-20T06:24:30;95603.47;;;4.21;94.12
13407;BME280;6774;48.208;10.766;2023-12-20T06:27:00;95600.59;;;4.42;94.00
13407;BME280;6774;48.208;10.766;2023-12-20T06:29:28;95597.53;;;4.47;93.04
13407;BME280;6774;48.208;10.766;2023-12-20T06:31:57;95588.25;;;4.35;93.36
13407;BME280;6774;48.208;10.766;2023-12-20T06:34:25;95604.41;;;4.48;93.50
13407;BME280;6774;48.208;10.766;2023-12-20T06:36:53;95597.00;;;4.43;93.45
13407;BME280;6774;48.208;10.766;2023-12-20T06:39:20;95606.16;;;4.29;93.81
13407;BME280;6774;48.208;10.766;2023-12-20T06:41:50;95611.56;;;4.46;94.25
13407;BME280;6774;48.208;10.766;2023-12-20T06:44:17;95616.78;;;4.46;94.41
13407;BME280;6774;48.208;10.766;2023-12-20T06:46:45;95624.41;;;4.39;95.37
13407;BME280;6774;48.208;10.766;2023-12-20T06:49:13;95623.25;;;4.24;95.47
13407;BME280;6774;48.208;10.766;2023-12-20T06:51:41;95623.03;;;4.35;95.09
13407;BME280;6774;48.208;10.766;2023-12-20T06:54:09;95618.84;;;4.24;95.34
13407;BME280;6774;48.208;10.766;2023-12-20T06:56:36;95626.84;;;4.23;95.11
13407;BME280;6774;48.208;10.766;2023-12-20T06:59:06;95622.00;;;4.46;94.73
13407;BME280;6774;48.208;10.766;2023-12-20T07:01:33;95618.16;;;4.50;94.11
13407;BME280;6774;48.208;10.766;2023-12-20T07:04:01;95628.22;;;4.45;94.31
13407;BME280;6774;48.208;10.766;2023-12-20T07:06:29;95642.16;;;4.36;94.67
13407;BME280;6774;48.208;10.766;2023-12-20T07:08:57;95650.19;;;4.24;95.35
13407;BME280;6774;48.208;10.766;2023-12-20T07:11:25;95646.72;;;4.34;94.27
13407;BME280;6774;48.208;10.766;2023-12-20T07:13:53;95664.91;;;4.25;94.77
13407;BME280;6774;48.208;10.766;2023-12-20T07:16:22;95672.72;;;4.25;95.14
13407;BME280;6774;48.208;10.766;2023-12-20T07:18:51;95660.66;;;4.24;95.01
13407;BME280;6774;48.208;10.766;2023-12-20T07:21:19;95667.56;;;4.16;95.42
13407;BME280;6774;48.208;10.766;2023-12-20T07:23:47;95666.25;;;4.29;95.63
13407;BME280;6774;48.208;10.766;2023-12-20T07:26:15;95652.13;;;4.22;95.98
13407;BME280;6774;48.208;10.766;2023-12-20T07:28:42;95664.22;;;4.23;95.90
13407;BME280;6774;48.208;10.766;2023-12-20T07:31:10;95656.28;;;4.15;96.19
13407;BME280;6774;48.208;10.766;2023-12-20T07:33:40;95664.66;;;4.19;96.40
13407;BME280;6774;48.208;10.766;2023-12-20T07:36:08;95664.69;;;4.37;95.43
13407;BME280;6774;48.208;10.766;2023-12-20T07:38:35;95663.81;;;4.46;95.17
13407;BME280;6774;48.208;10.766;2023-12-20T07:41:03;95665.75;;;4.44;95.18
13407;BME280;6774;48.208;10.766;2023-12-20T07:43:31;95681.75;;;4.41;95.06
13407;BME280;6774;48.208;10.766;2023-12-20T07:46:04;95682.78;;;4.48;94.51
13407;BME280;6774;48.208;10.766;2023-12-20T07:48:33;95678.63;;;4.55;94.42
13407;BME280;6774;48.208;10.766;2023-12-20T07:51:02;95684.75;;;4.64;94.45
13407;BME280;6774;48.208;10.766;2023-12-20T07:53:30;95688.59;;;4.42;94.28
13407;BME280;6774;48.208;10.766;2023-12-20T07:55:58;95701.00;;;4.40;95.37
13407;BME280;6774;48.208;10.766;2023-12-20T07:58:26;95700.44;;;4.36;95.38
13407;BME280;6774;48.208;10.766;2023-12-20T08:01:16;95696.34;;;4.34;96.08
13407;BME280;6774;48.208;10.766;2023-12-20T08:03:45;95701.16;;;4.56;95.07
13407;BME280;6774;48.208;10.766;2023-12-20T08:06:14;95705.81;;;4.62;94.49
13407;BME280;6774;48.208;10.766;2023-12-20T08:08:43;95707.47;;;4.63;95.10
13407;BME280;6774;48.208;10.766;2023-12-20T08:11:19;95713.50;;;4.64;95.00
13407;BME280;6774;48.208;10.766;2023-12-20T08:13:47;95721.31;;;4.73;95.09
13407;BME280;6774;48.208;10.766;2023-12-20T08:16:14;95712.41;;;4.66;94.76
13407;BME280;6774;48.208;10.766;2023-12-20T08:18:44;95718.47;;;4.67;95.93
13407;BME280;6774;48.208;10.766;2023-12-20T08:21:12;95712.50;;;4.74;95.55
13407;BME280;6774;48.208;10.766;2023-12-20T08:23:41;95715.66;;;4.78;95.57
13407;BME280;6774;48.208;10.766;2023-12-20T08:26:09;95708.88;;;4.85;95.57
13407;BME280;6774;48.208;10.766;2023-12-20T08:28:37;95700.81;;;4.96;95.72
13407;BME280;6774;48.208;10.766;2023-12-20T08:31:05;95718.56;;;4.93;95.29
13407;BME280;6774;48.208;10.766;2023-12-20T08:33:33;95719.19;;;4.87;95.48
13407;BME280;6774;48.208;10.766;2023-12-20T08:36:01;95721.41;;;4.81;95.36
13407;BME280;6774;48.208;10.766;2023-12-20T08:38:31;95722.75;;;4.85;95.47
13407;BME280;6774;48.208;10.766;2023-12-20T08:41:00;95713.94;;;4.87;95.10
13407;BME280;6774;48.208;10.766;2023-12-20T08:43:30;95712.09;;;4.97;94.94
13407;BME280;6774;48.208;10.766;2023-12-20T08:45:57;95713.41;;;5.01;95.06
13407;BME280;6774;48.208;10.766;2023-12-20T08:48:25;95717.22;;;4.89;94.95
13407;BME280;6774;48.208;10.766;2023-12-20T08:50:54;95710.59;;;4.94;94.84
13407;BME280;6774;48.208;10.766;2023-12-20T08:53:21;95724.50;;;5.12;94.88
13407;BME280;6774;48.208;10.766;2023-12-20T08:55:49;95718.16;;;5.15;94.32
13407;BME280;6774;48.208;10.766;2023-12-20T08:58:18;95722.91;;;5.02;94.90
13407;BME280;6774;48.208;10.766;2023-12-20T09:00:46;95722.31;;;5.08;94.22
13407;BME280;6774;48.208;10.766;2023-12-20T09:03:14;95708.84;;;5.03;94.28
13407;BME280;6774;48.208;10.766;2023-12-20T09:05:42;95721.94;;;5.21;94.35
13407;BME280;6774;48.208;10.766;2023-12-20T09:08:10;95704.59;;;5.37;94.19
13407;BME280;6774;48.208;10.766;2023-12-20T09:10:38;95722.56;;;5.32;93.75
13407;BME280;6774;48.208;10.766;2023-12-20T09:13:06;95716.06;;;5.19;94.45
13407;BME280;6774;48.208;10.766;2023-12-20T09:15:35;95711.56;;;5.29;94.45
13407;BME280;6774;48.208;10.766;2023-12-20T09:18:03;95705.59;;;5.36;93.38
13407;BME280;6774;48.208;10.766;2023-12-20T09:20:32;95699.75;;;5.42;93.88
13407;BME280;6774;48.208;10.766;2023-12-20T09:23:00;95704.75;;;5.36;94.18
13407;BME280;6774;48.208;10.766;2023-12-20T09:25:28;95712.19;;;5.40;93.62
13407;BME280;6774;48.208;10.766;2023-12-20T09:27:56;95704.97;;;5.60;93.34
13407;BME280;6774;48.208;10.766;2023-12-20T09:30:24;95700.19;;;5.56;93.03
13407;BME280;6774;48.208;10.766;2023-12-20T09:32:55;95699.06;;;5.58;93.75
13407;BME280;6774;48.208;10.766;2023-12-20T09:35:23;95704.81;;;5.62;93.62
13407;BME280;6774;48.208;10.766;2023-12-20T09:37:53;95700.75;;;5.24;94.09
13407;BME280;6774;48.208;10.766;2023-12-20T09:40:22;95696.97;;;5.62;94.49
13407;BME280;6774;48.208;10.766;2023-12-20T09:42:57;95698.91;;;5.60;94.37
13407;BME280;6774;48.208;10.766;2023-12-20T09:45:25;95696.75;;;5.37;94.73
13407;BME280;6774;48.208;10.766;2023-12-20T09:47:54;95691.81;;;5.52;94.62
13407;BME280;6774;48.208;10.766;2023-12-20T09:50:23;95679.56;;;5.53;95.63
13407;BME280;6774;48.208;10.766;2023-12-20T09:52:52;95685.72;;;5.69;94.83
13407;BME280;6774;48.208;10.766;2023-12-20T09:55:20;95696.09;;;5.79;94.11
13407;BME280;6774;48.208;10.766;2023-12-20T09:57:49;95695.31;;;5.61;94.43
13407;BME280;6774;48.208;10.766;2023-12-20T10:00:18;95697.66;;;5.46;94.86
13407;BME280;6774;48.208;10.766;2023-12-20T10:02:50;95688.91;;;5.37;95.05
13407;BME280;6774;48.208;10.766;2023-12-20T10:05:26;95691.25;;;5.40;95.46
13407;BME280;6774;48.208;10.766;2023-12-20T10:07:55;95687.13;;;5.38;95.27
13407;BME280;6774;48.208;10.766;2023-12-20T10:10:23;95689.34;;;5.51;95.14
13407;BME280;6774;48.208;10.766;2023-12-20T10:13:09;95696.91;;;5.54;94.33
13407;BME280;6774;48.208;10.766;2023-12-20T10:15:37;95684.91;;;5.69;94.86
13407;BME280;6774;48.208;10.766;2023-12-20T10:18:06;95683.06;;;5.87;94.33
13407;BME280;6774;48.208;10.766;2023-12-20T10:20:36;95680.44;;;5.87;93.50
13407;BME280;6774;48.208;10.766;2023-12-20T10:23:04;95683.53;;;6.09;94.08
13407;BME280;6774;48.208;10.766;2023-12-20T10:25:32;95668.97;;;6.06;92.81
13407;BME280;6774;48.208;10.766;2023-12-20T10:28:10;95667.06;;;5.90;93.16
13407;BME280;6774;48.208;10.766;2023-12-20T10:30:40;95657.69;;;5.88;93.58
13407;BME280;6774;48.208;10.766;2023-12-20T10:33:09;95658.16;;;5.83;93.16
13407;BME280;6774;48.208;10.766;2023-12-20T10:35:39;95668.34;;;5.86;94.08
13407;BME280;6774;48.208;10.766;2023-12-20T10:38:12;95671.81;;;5.69;92.71
13407;BME280;6774;48.208;10.766;2023-12-20T10:40:41;95652.56;;;5.78;92.69
13407;BME280;6774;48.208;10.766;2023-12-20T10:43:10;95651.66;;;5.87;92.69
13407;BME280;6774;48.208;10.766;2023-12-20T10:45:38;95649.63;;;5.81;93.00
13407;BME280;6774;48.208;10.766;2023-12-20T10:48:07;95634.59;;;5.83;91.30
13407;BME280;6774;48.208;10.766;2023-12-20T10:50:36;95632.44;;;6.05;91.94
13407;BME280;6774;48.208;10.766;2023-12-20T10:53:06;95640.44;;;6.03;91.16
13407;BME280;6774;48.208;10.766;2023-12-20T10:55:34;95639.50;;;6.12;91.14
13407;BME280;6774;48.208;10.766;2023-12-20T10:58:06;95641.22;;;6.30;89.38
13407;BME280;6774;48.208;10.766;2023-12-20T11:00:38;95640.22;;;6.22;90.74
13407;BME280;6774;48.208;10.766;2023-12-20T11:03:09;95652.34;;;6.23;90.67
13407;BME280;6774;48.208;10.766;2023-12-20T11:05:41;95640.78;;;6.42;90.51
13407;BME280;6774;48.208;10.766;2023-12-20T11:08:21;95640.81;;;6.50;89.21
13407;BME280;6774;48.208;10.766;2023-12-20T11:10:55;95633.47;;;6.20;89.31
13407;BME280;6774;48.208;10.766;2023-12-20T11:13:31;95635.94;;;6.64;88.53
13407;BME280;6774;48.208;10.766;2023-12-20T11:16:00;95633.59;;;6.44;88.92
13407;BME280;6774;48.208;10.766;2023-12-20T11:18:28;95639.44;;;6.38;89.23
13407;BME280;6774;48.208;10.766;2023-12-20T11:21:00;95633.03;;;6.24;89.08
13407;BME280;6774;48.208;10.766;2023-12-20T11:23:32;95632.13;;;6.08;89.58
13407;BME280;6774;48.208;10.766;2023-12-20T11:26:02;95619.44;;;6.29;89.99
13407;BME280;6774;48.208;10.766;2023-12-20T11:28:30;95628.00;;;6.31;89.32
13407;BME280;6774;48.208;10.766;2023-12-20T11:31:01;95619.41;;;6.13;89.67
13407;BME280;6774;48.208;10.766;2023-12-20T11:33:32;95619.75;;;6.26;90.15
13407;BME280;6774;48.208;10.766;2023-12-20T11:36:03;95629.22;;;6.19;89.83
13407;BME280;6774;48.208;10.766;2023-12-20T11:38:36;95616.50;;;6.24;88.64
13407;BME280;6774;48.208;10.766;2023-12-20T11:41:05;95623.81;;;6.20;89.29
13407;BME280;6774;48.208;10.766;2023-12-20T11:43:35;95631.56;;;6.30;88.67
13407;BME280;6774;48.208;10.766;2023-12-20T11:46:04;95624.69;;;6.29;89.14
13407;BME280;6774;48.208;10.766;2023-12-20T11:48:35;95626.03;;;6.33;89.79
13407;BME280;6774;48.208;10.766;2023-12-20T11:51:09;95628.47;;;6.35;89.65
13407;BME280;6774;48.208;10.766;2023-12-20T11:53:38;95629.09;;;6.28;89.57
13407;BME280;6774;48.208;10.766;2023-12-20T11:56:06;95621.28;;;6.37;89.92
13407;BME280;6774;48.208;10.766;2023-12-20T11:58:35;95616.69;;;5.96;90.06
13407;BME280;6774;48.208;10.766;2023-12-20T12:01:03;95631.47;;;6.06;90.20
13407;BME280;6774;48.208;10.766;2023-12-20T12:03:35;95628.31;;;6.02;90.50
13407;BME280;6774;48.208;10.766;2023-12-20T12:06:03;95630.28;;;6.00;90.94
13407;BME280;6774;48.208;10.766;2023-12-20T12:08:32;95630.81;;;5.78;90.74
13407;BME280;6774;48.208;10.766;2023-12-20T12:11:01;95618.25;;;5.89;90.87
13407;BME280;6774;48.208;10.766;2023-12-20T12:13:29;95622.53;;;5.90;90.77
13407;BME280;6774;48.208;10.766;2023-12-20T12:15:58;95611.63;;;5.95;90.17
13407;BME280;6774;48.208;10.766;2023-12-20T12:18:26;95625.56;;;5.52;90.43
13407;BME280;6774;48.208;10.766;2023-12-20T12:21:00;95617.34;;;5.47;90.53
13407;BME280;6774;48.208;10.766;2023-12-20T12:23:28;95629.88;;;5.61;90.61
13407;BME280;6774;48.208;10.766;2023-12-20T12:25:55;95629.44;;;5.48;nan
13407;BME280;6774;48.208;10.766;2023-12-20T12:28:27;95619.00;;;5.04;90.63
13407;BME280;6774;48.208;10.766;2023-12-20T12:30:56;95620.56;;;4.97;90.91
13407;BME280;6774;48.208;10.766;2023-12-20T12:33:25;95614.19;;;5.17;90.37
13407;BME280;6774;48.208;10.766;2023-12-20T12:35:54;95593.38;;;5.33;89.35
13407;BME280;6774;48.208;10.766;2023-12-20T12:38:22;95610.00;;;5.24;89.52
13407;BME280;6774;48.208;10.766;2023-12-20T12:40:51;95608.56;;;5.56;89.57
13407;BME280;6774;48.208;10.766;2023-12-20T12:43:20;95607.19;;;5.43;89.44
13407;BME280;6774;48.208;10.766;2023-12-20T12:45:50;95603.38;;;5.38;89.03
13407;BME280;6774;48.208;10.766;2023-12-20T12:48:18;95602.28;;;5.40;88.39
13407;BME280;6774;48.208;10.766;2023-12-20T12:50:47;95597.53;;;5.70;87.85
13407;BME280;6774;48.208;10.766;2023-12-20T12:53:14;95602.94;;;5.42;87.75
13407;BME280;6774;48.208;10.766;2023-12-20T12:55:43;95604.28;;;5.29;86.92
13407;BME280;6774;48.208;10.766;2023-12-20T12:58:11;95612.03;;;5.38;86.20
13407;BME280;6774;48.208;10.766;2023-12-20T13:00:39;95618.41;;;5.36;86.19
13407;BME280;6774;48.208;10.766;2023-12-20T13:03:10;95629.84;;;5.35;86.57
13407;BME280;6774;48.208;10.766;2023-12-20T13:05:37;95606.59;;;5.06;86.19
13407;BME280;6774;48.208;10.766;2023-12-20T13:08:08;95611.25;;;5.20;86.85
13407;BME280;6774;48.208;10.766;2023-12-20T13:10:38;95611.38;;;5.36;87.00
13407;BME280;6774;48.208;10.766;2023-12-20T13:13:06;95611.75;;;5.41;86.13
13407;BME280;6774;48.208;10.766;2023-12-20T13:15:34;95604.09;;;5.48;85.97
13407;BME280;6774;48.208;10.766;2023-12-20T13:18:02;95608.84;;;5.96;84.96